Time;durP1;ratioP1;P1;durP2;ratioP2;P2;SDS_P1;SDS_P2;PMS_P1;PMS_P2;Temp;Humidity;BMP_temperature;BMP_pressure;BME280_temperature;BME280_humidity;BME280_pressure;Samples;Min_cycle;Max_cycle;Signal;HPM_P1;HPM_P2
2021/05/03 00:01:48;;;;;;;3.70;0.40;;;18.40;55.50;;;;;;5096375;28;20182;-77
2021/05/03 00:04:14;;;;;;;4.18;0.70;;;18.40;55.50;;;;;;5097305;28;20664;-77
2021/05/03 00:06:40;;;;;;;2.20;0.40;;;18.30;55.00;;;;;;5095418;28;20181;-77
2021/05/03 00:09:06;;;;;;;2.13;0.40;;;18.20;55.30;;;;;;5099264;28;20275;-77
2021/05/03 00:11:32;;;;;;;2.75;0.52;;;18.20;55.00;;;;;;5099092;28;20188;-78
2021/05/03 00:13:58;;;;;;;2.83;0.45;;;18.10;55.10;;;;;;5096432;28;20844;-78
2021/05/03 00:16:24;;;;;;;1.30;0.50;;;18.10;54.90;;;;;;5098307;28;20185;-77
2021/05/03 00:18:49;;;;;;;1.92;0.43;;;18.00;54.70;;;;;;5097150;28;20773;-77
2021/05/03 00:21:15;;;;;;;2.05;0.40;;;18.00;55.20;;;;;;5099111;28;20581;-77
2021/05/03 00:23:41;;;;;;;3.30;0.63;;;17.90;55.30;;;;;;5098626;28;20177;-77
2021/05/03 00:26:08;;;;;;;2.47;0.63;;;17.80;55.50;;;;;;5096960;28;20260;-76
2021/05/03 00:28:34;;;;;;;1.08;0.50;;;17.80;55.30;;;;;;5097942;28;20206;-78
2021/05/03 00:31:00;;;;;;;0.95;0.25;;;17.70;54.60;;;;;;5098907;28;20178;-77
2021/05/03 00:33:25;;;;;;;3.60;0.40;;;17.70;54.50;;;;;;5097805;28;20551;-77
2021/05/03 00:35:51;;;;;;;0.25;0.25;;;17.60;54.30;;;;;;5096051;28;20250;-77
2021/05/03 00:38:17;;;;;;;1.63;0.77;;;17.60;53.80;;;;;;5096333;28;20974;-77
2021/05/03 00:40:42;;;;;;;2.90;0.32;;;17.70;54.00;;;;;;5098588;28;20178;-77
2021/05/03 00:43:10;;;;;;;1.10;0.50;;;17.70;54.00;;;;;;5100912;28;20677;-77
2021/05/03 00:45:36;;;;;;;0.38;0.30;;;17.60;54.10;;;;;;5102265;28;20702;-77
2021/05/03 00:48:01;;;;;;;0.63;0.30;;;17.60;54.10;;;;;;5099343;28;20190;-77
2021/05/03 00:50:29;;;;;;;0.30;0.30;;;17.60;54.10;;;;;;5083248;28;20582;-77
2021/05/03 00:52:56;;;;;;;3.65;0.30;;;17.60;54.20;;;;;;5099348;28;20189;-77
2021/05/03 00:55:24;;;;;;;1.55;0.30;;;17.60;54.30;;;;;;5101735;28;20206;-77
2021/05/03 00:57:50;;;;;;;1.85;0.30;;;17.50;54.30;;;;;;5091995;28;20216;-76
2021/05/03 01:00:16;;;;;;;2.95;0.50;;;17.60;54.30;;;;;;5096779;28;20178;-76
2021/05/03 01:02:42;;;;;;;0.40;0.40;;;17.50;54.20;;;;;;5101283;28;20203;-76
2021/05/03 01:05:09;;;;;;;0.55;0.20;;;17.50;54.40;;;;;;5099054;28;20190;-77
2021/05/03 01:07:35;;;;;;;2.13;0.25;;;17.50;54.40;;;;;;5096918;28;20209;-77
2021/05/03 01:10:02;;;;;;;0.38;0.20;;;17.50;54.40;;;;;;5101197;28;20239;-77
2021/05/03 01:12:28;;;;;;;1.42;0.30;;;17.50;54.50;;;;;;5101039;28;20193;-76
2021/05/03 01:14:53;;;;;;;1.08;0.25;;;17.50;54.60;;;;;;5099866;28;20746;-75
2021/05/03 01:17:32;;;;;;;2.17;0.47;;;17.50;54.60;;;;;;5101087;28;20786;-75
2021/05/03 01:19:58;;;;;;;0.22;0.22;;;17.50;54.70;;;;;;5099310;28;20177;-75
2021/05/03 01:22:24;;;;;;;0.70;0.40;;;17.40;54.70;;;;;;5098702;28;20230;-76
2021/05/03 01:24:49;;;;;;;0.73;0.40;;;17.50;54.70;;;;;;5098744;28;20658;-75
2021/05/03 01:27:15;;;;;;;0.30;0.20;;;17.40;54.60;;;;;;5103262;28;20182;-75
2021/05/03 01:29:41;;;;;;;0.35;0.30;;;17.50;54.80;;;;;;5076945;28;20234;-76
2021/05/03 01:32:07;;;;;;;2.53;0.32;;;17.50;54.90;;;;;;5095272;28;20177;-78
2021/05/03 01:34:32;;;;;;;2.22;0.50;;;17.50;55.00;;;;;;5094113;28;20236;-76
2021/05/03 01:36:58;;;;;;;2.20;0.43;;;17.50;55.20;;;;;;5097052;28;20850;-77
2021/05/03 01:39:24;;;;;;;1.15;0.63;;;17.50;55.70;;;;;;5096327;28;20312;-77
2021/05/03 01:41:50;;;;;;;0.30;0.30;;;17.40;55.60;;;;;;5098790;28;20193;-77
2021/05/03 01:44:16;;;;;;;2.13;0.40;;;17.30;55.70;;;;;;5099000;28;20239;-77
2021/05/03 01:46:42;;;;;;;0.80;0.40;;;17.30;55.70;;;;;;5099931;28;20585;-77
2021/05/03 01:49:09;;;;;;;0.47;0.47;;;17.20;56.00;;;;;;5097750;28;20206;-76
2021/05/03 01:51:37;;;;;;;3.83;0.50;;;17.20;55.90;;;;;;5097081;28;20235;-77
2021/05/03 01:54:04;;;;;;;2.30;0.63;;;17.20;56.20;;;;;;5100478;28;20667;-77
2021/05/03 01:56:30;;;;;;;0.80;0.45;;;17.10;56.40;;;;;;5093567;28;20185;-77
2021/05/03 01:58:57;;;;;;;3.88;0.50;;;17.10;56.20;;;;;;5097287;28;20680;-76
2021/05/03 02:01:23;;;;;;;5.28;0.57;;;17.00;56.60;;;;;;5095585;28;20178;-77
2021/05/03 02:03:48;;;;;;;1.95;0.43;;;17.00;56.90;;;;;;5095293;28;20637;-77
2021/05/03 02:06:15;;;;;;;2.38;0.70;;;16.90;56.70;;;;;;5092541;28;20649;-78
2021/05/03 02:08:41;;;;;;;1.85;0.60;;;16.90;56.90;;;;;;5099570;28;20202;-77
2021/05/03 02:11:07;;;;;;;6.45;0.75;;;16.80;57.00;;;;;;5100328;28;20184;-77
2021/05/03 02:13:34;;;;;;;0.93;0.40;;;16.80;56.90;;;;;;5097840;28;20632;-77
2021/05/03 02:16:00;;;;;;;1.30;0.32;;;16.70;57.30;;;;;;5097845;28;20186;-77
2021/05/03 02:18:26;;;;;;;4.95;0.60;;;16.70;57.10;;;;;;5100309;28;20204;-77
2021/05/03 02:20:52;;;;;;;3.72;0.50;;;16.60;57.10;;;;;;5099211;28;20275;-77
2021/05/03 02:23:18;;;;;;;1.38;0.60;;;16.60;57.60;;;;;;5090400;28;20655;-77
2021/05/03 02:25:44;;;;;;;2.95;0.70;;;16.50;58.00;;;;;;5079824;28;20744;-76
2021/05/03 02:28:11;;;;;;;1.75;0.30;;;16.50;58.50;;;;;;5097753;28;20182;-76
2021/05/03 02:30:37;;;;;;;2.25;0.43;;;16.40;58.70;;;;;;5094959;28;20181;-77
2021/05/03 02:33:03;;;;;;;2.03;0.57;;;16.40;58.60;;;;;;5094602;28;20177;-76
2021/05/03 02:35:31;;;;;;;4.35;0.40;;;16.30;58.60;;;;;;5096386;28;20242;-77
2021/05/03 02:37:59;;;;;;;0.35;0.30;;;16.30;58.70;;;;;;5094711;28;20277;-77
2021/05/03 02:40:25;;;;;;;1.10;0.40;;;16.20;58.60;;;;;;5097026;28;20185;-77
2021/05/03 02:42:56;;;;;;;1.10;0.35;;;16.20;58.90;;;;;;5095737;28;20644;-78
2021/05/03 02:45:40;;;;;;;3.60;0.68;;;16.20;58.70;;;;;;5096320;28;20228;-76
2021/05/03 02:48:07;;;;;;;1.58;0.30;;;16.10;59.40;;;;;;5096912;28;20188;-77
2021/05/03 02:50:32;;;;;;;2.60;0.50;;;16.10;59.10;;;;;;5098650;28;20204;-76
2021/05/03 02:52:58;;;;;;;4.35;0.47;;;16.10;59.30;;;;;;5076131;28;20189;-76
2021/05/03 02:55:24;;;;;;;2.47;0.50;;;16.10;59.10;;;;;;5093630;28;20186;-77
2021/05/03 02:57:51;;;;;;;1.55;0.45;;;16.10;59.60;;;;;;5095802;28;20616;-76
2021/05/03 03:00:24;;;;;;;6.03;0.68;;;16.00;59.40;;;;;;5095108;28;20201;-76
2021/05/03 03:02:49;;;;;;;2.33;0.65;;;16.00;59.30;;;;;;5092998;28;20181;-77
2021/05/03 03:05:15;;;;;;;2.00;0.50;;;16.00;59.60;;;;;;5097929;28;20250;-78
2021/05/03 03:07:41;;;;;;;0.40;0.40;;;15.90;59.60;;;;;;5098083;28;20185;-78
2021/05/03 03:10:07;;;;;;;2.08;0.30;;;15.90;60.30;;;;;;5096602;28;20209;-76
2021/05/03 03:12:34;;;;;;;5.10;0.50;;;15.90;60.10;;;;;;5079056;28;20202;-77
2021/05/03 03:15:04;;;;;;;3.60;0.30;;;15.80;60.40;;;;;;5096927;28;20673;-77
2021/05/03 03:17:30;;;;;;;0.68;0.40;;;15.80;60.40;;;;;;5099461;28;20188;-76
2021/05/03 03:19:56;;;;;;;1.80;0.43;;;15.80;60.70;;;;;;5090511;28;20190;-76
2021/05/03 03:22:21;;;;;;;2.28;0.30;;;15.70;60.90;;;;;;5096465;28;20182;-77
2021/05/03 03:24:47;;;;;;;1.02;0.50;;;15.70;60.90;;;;;;5093855;28;20266;-77
2021/05/03 03:27:13;;;;;;;1.10;0.50;;;15.70;61.20;;;;;;5095140;28;20614;-76
2021/05/03 03:29:39;;;;;;;0.85;0.60;;;15.70;61.00;;;;;;5093086;28;20210;-77
2021/05/03 03:32:05;;;;;;;1.38;0.40;;;15.70;61.10;;;;;;5097490;28;20186;-77
2021/05/03 03:34:30;;;;;;;3.45;0.38;;;15.70;61.30;;;;;;5097353;28;20243;-78
2021/05/03 03:36:56;;;;;;;0.65;0.38;;;15.70;61.10;;;;;;5098126;28;20186;-77
2021/05/03 03:39:22;;;;;;;4.63;0.50;;;15.70;61.70;;;;;;5094003;28;20680;-77
2021/05/03 03:41:48;;;;;;;3.33;0.65;;;15.70;61.50;;;;;;5089132;28;20181;-75
2021/05/03 03:44:13;;;;;;;1.60;0.68;;;15.70;61.40;;;;;;5096385;28;20182;-78
2021/05/03 03:46:39;;;;;;;8.90;0.65;;;15.70;61.70;;;;;;5097226;28;20710;-78
2021/05/03 03:49:05;;;;;;;1.65;0.65;;;15.80;61.60;;;;;;5095179;28;20577;-77
2021/05/03 03:51:31;;;;;;;1.20;0.30;;;15.70;61.90;;;;;;5097330;28;20210;-77
2021/05/03 03:53:56;;;;;;;2.55;0.80;;;15.70;62.10;;;;;;5096786;28;20201;-77
2021/05/03 03:56:23;;;;;;;1.80;0.82;;;15.70;62.20;;;;;;5098136;28;20245;-77
2021/05/03 03:58:50;;;;;;;4.13;0.82;;;15.70;62.20;;;;;;5095196;28;20186;-78
2021/05/03 04:01:15;;;;;;;2.05;0.40;;;15.60;62.80;;;;;;5078657;28;20174;-77
2021/05/03 04:04:01;;;;;;;1.33;0.60;;;15.60;62.50;;;;;;5095522;28;20546;-77
2021/05/03 04:25:34;;;;;;;2.10;0.50;;;15.60;62.90;;;;;;5064440;28;20178;-78
2021/05/03 04:28:01;;;;;;;0.60;0.60;;;15.60;63.10;;;;;;5065869;28;20191;-77
2021/05/03 04:30:27;;;;;;;1.17;0.55;;;15.70;63.00;;;;;;5063294;28;20682;-78
2021/05/03 04:32:52;;;;;;;2.95;0.73;;;15.80;62.70;;;;;;5068102;28;20199;-78
2021/05/03 04:35:18;;;;;;;2.38;0.70;;;15.80;62.90;;;;;;5068628;28;20184;-78
2021/05/03 04:37:44;;;;;;;0.40;0.40;;;15.90;63.40;;;;;;5058909;28;20187;-77
2021/05/03 04:40:11;;;;;;;2.70;0.55;;;16.00;63.20;;;;;;5069801;28;20191;-78
2021/05/03 04:42:36;;;;;;;1.50;0.73;;;16.00;63.10;;;;;;5065290;28;20297;-77
2021/05/03 04:45:03;;;;;;;2.08;0.60;;;16.00;63.50;;;;;;5061297;28;20270;-80
2021/05/03 04:47:29;;;;;;;4.88;0.50;;;16.10;63.40;;;;;;5100006;28;20178;-77
2021/05/03 04:49:54;;;;;;;1.25;0.43;;;16.10;62.90;;;;;;5101297;28;20220;-78
2021/05/03 04:52:20;;;;;;;2.05;0.50;;;16.10;63.10;;;;;;5101936;28;20264;-78
2021/05/03 04:54:46;;;;;;;1.38;0.50;;;16.10;62.90;;;;;;5098464;28;20251;-77
2021/05/03 04:57:12;;;;;;;0.75;0.75;;;16.10;62.80;;;;;;5097759;28;20615;-78
2021/05/03 04:59:37;;;;;;;0.70;0.70;;;16.20;63.50;;;;;;5099697;28;20723;-78
2021/05/03 05:02:03;;;;;;;0.52;0.52;;;16.20;63.20;;;;;;5099869;28;20660;-78
2021/05/03 05:04:29;;;;;;;0.40;0.40;;;16.20;63.30;;;;;;5097180;28;20181;-78
2021/05/03 05:06:57;;;;;;;0.60;0.60;;;16.20;63.40;;;;;;5099606;28;20185;-79
2021/05/03 05:09:23;;;;;;;4.07;0.63;;;16.20;63.20;;;;;;5100670;28;20216;-78
2021/05/03 05:11:49;;;;;;;1.52;0.75;;;16.20;64.30;;;;;;5095883;28;20537;-77
2021/05/03 05:14:14;;;;;;;1.65;0.57;;;16.20;64.50;;;;;;5102124;28;20196;-78
2021/05/03 05:16:41;;;;;;;2.50;0.40;;;16.30;64.60;;;;;;5096007;28;20189;-78
2021/05/03 05:19:07;;;;;;;0.50;0.40;;;16.30;65.20;;;;;;5098339;28;20260;-78
2021/05/03 05:21:36;;;;;;;4.68;0.60;;;16.30;66.00;;;;;;5099421;28;20352;-77
2021/05/03 05:24:01;;;;;;;4.60;0.55;;;16.30;66.30;;;;;;5098391;28;20192;-77
2021/05/03 05:26:27;;;;;;;2.72;0.40;;;16.40;67.20;;;;;;5091558;28;20183;-77
2021/05/03 05:28:53;;;;;;;0.82;0.35;;;16.50;68.00;;;;;;5099237;28;20213;-77
2021/05/03 05:31:18;;;;;;;2.58;0.57;;;16.60;68.40;;;;;;5097963;28;20675;-77
2021/05/03 05:33:44;;;;;;;1.90;0.68;;;16.70;68.40;;;;;;5098575;28;20193;-77
2021/05/03 05:36:10;;;;;;;2.08;0.47;;;16.80;68.50;;;;;;5076249;28;20204;-77
2021/05/03 05:38:37;;;;;;;1.10;0.50;;;16.90;69.40;;;;;;5100833;28;20197;-78
2021/05/03 05:41:03;;;;;;;0.70;0.50;;;16.90;69.50;;;;;;5098273;28;20178;-79
2021/05/03 05:43:29;;;;;;;1.02;0.50;;;16.90;69.40;;;;;;5097701;28;20658;-78
2021/05/03 05:45:55;;;;;;;0.57;0.52;;;16.90;70.60;;;;;;5095585;28;20193;-77
2021/05/03 05:48:21;;;;;;;2.80;0.60;;;16.90;70.50;;;;;;5097662;28;20223;-78
2021/05/03 05:50:47;;;;;;;2.92;0.88;;;16.90;70.50;;;;;;5094292;28;20196;-79
2021/05/03 05:53:31;;;;;;;0.57;0.50;;;17.00;70.70;;;;;;5100540;28;20177;-77
2021/05/03 05:55:58;;;;;;;0.50;0.50;;;17.00;71.40;;;;;;5099548;28;20288;-78
2021/05/03 05:58:24;;;;;;;3.38;0.57;;;17.00;72.10;;;;;;5098188;28;20182;-78
2021/05/03 06:00:50;;;;;;;2.53;0.52;;;17.10;71.20;;;;;;5097895;28;20730;-78
2021/05/03 06:03:15;;;;;;;1.85;0.50;;;17.10;71.70;;;;;;5096675;28;20233;-80
2021/05/03 06:05:41;;;;;;;1.55;0.60;;;17.20;70.70;;;;;;5096330;28;20188;-79
2021/05/03 06:08:07;;;;;;;2.15;0.70;;;17.30;71.30;;;;;;5097121;28;20178;-78
2021/05/03 06:10:33;;;;;;;1.17;0.40;;;17.30;71.50;;;;;;5099594;28;20177;-78
2021/05/03 06:12:58;;;;;;;0.52;0.43;;;17.40;71.20;;;;;;5095170;28;20187;-76
2021/05/03 06:15:24;;;;;;;8.57;0.63;;;17.40;71.40;;;;;;5070719;28;20296;-76
2021/05/03 06:17:50;;;;;;;1.38;0.60;;;17.40;71.70;;;;;;5053496;28;20186;-77
2021/05/03 06:20:16;;;;;;;0.88;0.82;;;17.40;72.20;;;;;;5075592;28;20236;-78
2021/05/03 06:22:42;;;;;;;2.60;0.60;;;17.30;72.20;;;;;;5076926;28;20182;-77
2021/05/03 06:25:09;;;;;;;0.85;0.50;;;17.40;71.40;;;;;;5077147;28;20182;-76
2021/05/03 06:27:35;;;;;;;0.98;0.63;;;17.40;72.10;;;;;;5082493;28;20181;-76
2021/05/03 06:30:04;;;;;;;0.70;0.70;;;17.40;71.90;;;;;;5081534;28;20206;-76
2021/05/03 06:32:29;;;;;;;3.60;0.85;;;17.40;72.50;;;;;;5097040;27;20224;-77
2021/05/03 06:34:55;;;;;;;4.22;1.00;;;17.30;72.40;;;;;;5091903;28;20213;-77
2021/05/03 06:37:21;;;;;;;3.08;0.80;;;17.30;72.90;;;;;;5083534;28;20188;-77
2021/05/03 06:39:47;;;;;;;0.80;0.80;;;17.20;73.10;;;;;;5093757;28;20189;-78
2021/05/03 06:42:14;;;;;;;2.63;0.85;;;17.20;73.60;;;;;;5094877;28;20181;-77
2021/05/03 06:44:42;;;;;;;1.05;0.90;;;17.20;72.90;;;;;;5090841;28;20182;-77
2021/05/03 06:47:10;;;;;;;0.73;0.73;;;17.20;74.00;;;;;;5091805;28;20170;-76
2021/05/03 06:49:36;;;;;;;1.30;0.73;;;17.30;73.80;;;;;;5096408;28;20210;-77
2021/05/03 06:52:02;;;;;;;2.28;0.73;;;17.40;73.10;;;;;;5093880;28;20239;-76
2021/05/03 06:54:28;;;;;;;1.42;0.70;;;17.60;72.70;;;;;;5089953;28;20178;-76
2021/05/03 06:56:53;;;;;;;0.70;0.70;;;17.60;73.20;;;;;;5094243;28;20181;-76
2021/05/03 06:59:20;;;;;;;1.02;0.82;;;17.70;72.60;;;;;;5094230;28;20666;-77
2021/05/03 07:01:45;;;;;;;2.28;0.90;;;17.80;72.80;;;;;;5094286;28;20177;-77
2021/05/03 07:04:11;;;;;;;0.80;0.80;;;17.90;72.70;;;;;;5095170;28;20181;-76
2021/05/03 07:06:37;;;;;;;0.93;0.85;;;17.90;72.70;;;;;;5093134;28;20214;-75
2021/05/03 07:09:07;;;;;;;2.15;0.70;;;18.10;72.80;;;;;;5092957;28;20744;-73
2021/05/03 07:11:33;;;;;;;0.50;0.50;;;18.20;72.00;;;;;;5094388;28;20695;-75
2021/05/03 07:13:59;;;;;;;8.15;0.80;;;18.30;70.70;;;;;;5089677;28;20193;-75
2021/05/03 07:16:25;;;;;;;1.75;1.00;;;18.30;70.40;;;;;;5093126;28;20185;-76
2021/05/03 07:19:09;;;;;;;0.90;0.50;;;18.30;70.20;;;;;;5095618;28;20658;-75
2021/05/03 07:21:38;;;;;;;0.70;0.70;;;18.40;69.90;;;;;;5090496;28;20560;-76
2021/05/03 07:24:05;;;;;;;4.28;0.90;;;18.40;69.50;;;;;;5093149;28;20181;-76
2021/05/03 07:26:31;;;;;;;1.58;0.75;;;18.50;70.30;;;;;;5091004;28;20249;-75
2021/05/03 07:28:57;;;;;;;1.60;0.88;;;18.40;70.50;;;;;;5092546;28;20695;-76
2021/05/03 07:31:22;;;;;;;0.93;0.93;;;18.40;70.20;;;;;;5092123;28;20195;-76
2021/05/03 07:33:48;;;;;;;1.38;0.80;;;18.40;69.70;;;;;;5093567;28;20191;-77
2021/05/03 07:36:14;;;;;;;1.27;0.90;;;18.50;69.40;;;;;;5093445;28;20181;-75
2021/05/03 07:38:39;;;;;;;1.80;0.70;;;18.60;69.30;;;;;;5092898;28;20550;-73
2021/05/03 07:41:05;;;;;;;1.02;0.95;;;18.70;69.00;;;;;;5095923;28;20280;-74
2021/05/03 07:43:31;;;;;;;4.13;0.70;;;18.80;68.70;;;;;;5099797;28;20940;-75
2021/05/03 07:45:56;;;;;;;0.90;0.90;;;18.80;67.90;;;;;;5100048;28;20181;-74
2021/05/03 07:48:22;;;;;;;0.82;0.82;;;18.80;67.40;;;;;;5103059;28;20178;-74
2021/05/03 07:50:48;;;;;;;0.93;0.68;;;18.90;67.50;;;;;;5101566;28;20194;-74
2021/05/03 07:53:13;;;;;;;1.63;0.95;;;18.90;67.80;;;;;;5096806;28;20181;-74
2021/05/03 07:55:39;;;;;;;0.70;0.70;;;18.80;67.90;;;;;;5094968;28;20185;-74
2021/05/03 07:58:06;;;;;;;2.70;1.20;;;18.80;67.30;;;;;;5095541;28;20190;-74
2021/05/03 08:00:32;;;;;;;0.90;0.90;;;18.80;67.70;;;;;;5100935;28;20218;-74
2021/05/03 08:02:57;;;;;;;1.25;1.13;;;18.80;67.30;;;;;;5098390;28;20211;-74
2021/05/03 08:05:24;;;;;;;0.73;0.73;;;18.80;68.10;;;;;;5098648;28;20185;-74
2021/05/03 08:07:49;;;;;;;1.48;1.20;;;18.80;66.60;;;;;;5098172;28;20789;-74
2021/05/03 08:10:15;;;;;;;0.90;0.90;;;18.80;66.40;;;;;;5096529;28;20290;-74
2021/05/03 08:12:41;;;;;;;1.17;1.00;;;18.90;66.00;;;;;;5100568;28;20205;-74
2021/05/03 08:15:14;;;;;;;3.25;1.00;;;19.00;65.30;;;;;;5097176;28;20651;-74
2021/05/03 08:17:43;;;;;;;1.88;1.30;;;19.00;64.80;;;;;;5101563;28;20173;-74
2021/05/03 08:20:14;;;;;;;1.17;1.00;;;19.00;64.20;;;;;;5100315;28;20262;-74
2021/05/03 08:22:40;;;;;;;1.60;0.88;;;19.00;63.60;;;;;;5101053;28;20185;-74
2021/05/03 08:25:07;;;;;;;1.10;1.10;;;18.90;64.20;;;;;;5095992;28;20201;-74
2021/05/03 08:27:36;;;;;;;5.72;1.08;;;19.00;63.90;;;;;;5102336;28;20178;-74
2021/05/03 08:30:04;;;;;;;1.10;0.88;;;19.10;64.20;;;;;;5096873;28;20282;-74
2021/05/03 08:32:30;;;;;;;0.73;0.73;;;19.10;63.90;;;;;;5097016;28;20187;-74
2021/05/03 08:34:56;;;;;;;4.47;0.93;;;19.20;64.10;;;;;;5098726;28;20297;-74
2021/05/03 08:37:21;;;;;;;0.73;0.73;;;19.10;63.20;;;;;;5096449;28;20654;-74
2021/05/03 08:39:47;;;;;;;2.67;1.10;;;19.10;63.10;;;;;;5099747;28;20200;-74
2021/05/03 08:42:16;;;;;;;1.05;0.85;;;19.10;63.50;;;;;;5102761;28;20560;-75
2021/05/03 08:44:45;;;;;;;1.38;1.10;;;19.10;63.60;;;;;;5097283;28;20235;-74
2021/05/03 08:47:11;;;;;;;2.38;1.10;;;19.10;64.20;;;;;;5099917;28;20532;-74
2021/05/03 08:49:51;;;;;;;2.38;1.10;;;19.20;64.40;;;;;;5101592;28;20220;-74
2021/05/03 08:54:45;;;;;;;0.90;0.90;;;19.50;63.80;;;;;;5093225;28;20178;-73
2021/05/03 08:57:13;;;;;;;2.25;0.88;;;19.60;63.70;;;;;;5092242;28;20186;-73
2021/05/03 08:59:40;;;;;;;1.30;1.00;;;19.50;63.80;;;;;;5095880;28;20747;-74
2021/05/03 09:02:08;;;;;;;0.80;0.80;;;19.50;63.60;;;;;;5095618;28;20186;-74
2021/05/03 09:04:34;;;;;;;1.05;1.05;;;19.60;64.20;;;;;;5074623;28;20174;-74
2021/05/03 09:07:10;;;;;;;2.58;1.02;;;19.70;62.80;;;;;;5093098;28;20177;-74
2021/05/03 09:09:42;;;;;;;1.20;1.00;;;19.80;63.20;;;;;;5092175;28;20216;-74
2021/05/03 09:12:16;;;;;;;0.75;0.75;;;19.90;62.90;;;;;;5094798;28;20206;-74
2021/05/03 09:14:49;;;;;;;0.75;0.75;;;20.00;62.00;;;;;;5092621;28;20182;-74
2021/05/03 09:17:33;;;;;;;2.58;1.10;;;20.00;62.10;;;;;;5093022;28;20236;-74
2021/05/03 09:20:03;;;;;;;1.00;0.88;;;20.00;62.10;;;;;;5091936;28;20225;-74
2021/05/03 09:22:49;;;;;;;1.10;0.95;;;20.20;62.10;;;;;;5099862;28;20194;-74
2021/05/03 09:25:34;;;;;;;1.95;1.30;;;20.40;61.70;;;;;;5094309;28;20238;-74
2021/05/03 09:28:13;;;;;;;0.82;0.82;;;20.70;61.40;;;;;;5093832;28;20174;-74
2021/05/03 09:30:41;;;;;;;3.00;1.00;;;21.00;60.50;;;;;;5099424;28;20201;-75
2021/05/03 09:33:25;;;;;;;0.90;0.90;;;21.20;60.20;;;;;;5095183;28;20491;-74
2021/05/03 09:35:52;;;;;;;1.05;1.02;;;21.50;60.20;;;;;;5098394;28;20178;-74
2021/05/03 09:38:39;;;;;;;2.30;1.08;;;22.00;59.80;;;;;;5095363;28;20257;-74
2021/05/03 09:41:21;;;;;;;1.05;0.95;;;22.60;59.00;;;;;;5093800;28;20276;-74
2021/05/03 09:43:51;;;;;;;2.58;1.33;;;23.20;58.20;;;;;;5101417;28;20182;-75
2021/05/03 09:46:27;;;;;;;1.33;1.15;;;23.70;56.70;;;;;;5093506;28;20186;-74
2021/05/03 09:48:54;;;;;;;1.25;1.10;;;24.00;56.20;;;;;;5095278;28;20213;-75
2021/05/03 09:51:43;;;;;;;2.22;1.30;;;24.20;54.90;;;;;;5096951;28;20196;-75
2021/05/03 09:54:14;;;;;;;2.70;2.08;;;24.10;55.30;;;;;;5099817;28;20181;-74
2021/05/03 09:57:01;;;;;;;1.48;1.10;;;24.10;55.20;;;;;;5098523;28;20662;-76
2021/05/03 10:00:00;;;;;;;1.48;1.30;;;24.30;54.90;;;;;;5099969;28;20186;-76
2021/05/03 10:02:34;;;;;;;4.60;1.50;;;24.60;54.70;;;;;;5022213;28;20185;-77
2021/05/03 10:05:23;;;;;;;3.75;1.27;;;25.20;54.20;;;;;;5021965;28;20250;-76
2021/05/03 10:07:54;;;;;;;1.58;1.48;;;25.90;53.30;;;;;;5021025;28;20188;-77
2021/05/03 10:10:25;;;;;;;1.33;1.27;;;26.40;53.20;;;;;;5020381;28;20639;-74
2021/05/03 10:12:52;;;;;;;1.58;1.48;;;26.80;51.80;;;;;;5021967;28;20295;-75
2021/05/03 10:15:19;;;;;;;1.40;1.30;;;27.00;51.50;;;;;;5016626;28;20200;-74
2021/05/03 10:17:45;;;;;;;1.17;1.17;;;27.30;51.20;;;;;;5019507;28;20184;-74
2021/05/03 10:20:19;;;;;;;1.10;1.10;;;27.70;51.00;;;;;;5022451;28;20227;-75
2021/05/03 10:22:46;;;;;;;3.08;1.45;;;28.20;50.20;;;;;;5019130;28;20180;-74
2021/05/03 10:25:16;;;;;;;1.35;1.30;;;28.80;49.70;;;;;;5019596;28;20184;-75
2021/05/03 10:27:46;;;;;;;1.27;1.27;;;29.30;48.90;;;;;;5019851;28;20184;-75
2021/05/03 10:30:15;;;;;;;2.25;1.60;;;29.80;48.70;;;;;;5019792;28;20733;-75
2021/05/03 10:32:43;;;;;;;5.32;1.58;;;30.20;48.50;;;;;;5021100;28;20717;-75
2021/05/03 10:35:24;;;;;;;2.10;1.60;;;30.50;48.30;;;;;;5017991;28;20768;-75
2021/05/03 10:37:51;;;;;;;1.30;1.25;;;30.00;46.70;;;;;;5029733;28;20267;-75
2021/05/03 10:40:20;;;;;;;1.38;1.35;;;29.80;48.00;;;;;;5079708;28;20194;-76
2021/05/03 10:43:08;;;;;;;4.00;1.55;;;30.10;47.60;;;;;;5096541;28;20182;-75
2021/05/03 10:48:29;;;;;;;7.97;1.77;;;31.00;46.20;;;;;;5098137;28;20213;-75
2021/05/03 10:50:56;;;;;;;5.47;1.42;;;31.40;45.90;;;;;;5094340;28;20254;-76
2021/05/03 10:53:45;;;;;;;1.42;1.33;;;31.70;45.00;;;;;;5097603;28;20188;-76
2021/05/03 10:56:10;;;;;;;3.42;1.38;;;32.20;44.70;;;;;;5096699;28;20220;-75
2021/05/03 10:58:54;;;;;;;1.75;1.30;;;32.10;44.50;;;;;;5097152;28;20273;-77
2021/05/03 11:01:21;;;;;;;2.72;1.08;;;32.10;42.80;;;;;;5094456;28;20301;-76
2021/05/03 11:03:58;;;;;;;3.45;1.17;;;32.10;44.40;;;;;;5093021;28;20573;-76
2021/05/03 11:06:36;;;;;;;3.70;1.02;;;32.30;44.00;;;;;;5096373;28;20193;-75
2021/05/03 11:09:25;;;;;;;1.35;0.90;;;32.60;43.50;;;;;;5094557;28;20287;-75
2021/05/03 11:11:51;;;;;;;3.75;1.10;;;32.50;42.30;;;;;;5094123;28;20742;-76
2021/05/03 11:14:19;;;;;;;1.75;1.10;;;32.30;43.90;;;;;;5096732;28;20177;-76
2021/05/03 11:17:08;;;;;;;2.13;0.80;;;32.30;43.70;;;;;;5091121;28;20329;-76
2021/05/03 11:20:12;;;;;;;0.77;0.77;;;32.40;41.90;;;;;;5097038;28;20264;-76
2021/05/03 11:22:41;;;;;;;1.85;0.80;;;32.40;42.70;;;;;;5093943;28;20219;-76
2021/05/03 11:25:14;;;;;;;1.10;0.85;;;32.70;43.00;;;;;;5090582;28;20169;-75
2021/05/03 11:30:33;;;;;;;0.80;0.80;;;33.60;43.30;;;;;;5095627;28;20213;-75
2021/05/03 11:33:05;;;;;;;2.80;1.02;;;33.90;43.00;;;;;;5092050;28;20193;-75
2021/05/03 11:35:48;;;;;;;0.80;0.80;;;34.20;42.90;;;;;;5092706;28;20256;-75
2021/05/03 11:38:24;;;;;;;0.90;0.75;;;34.50;42.20;;;;;;5095260;28;20186;-75
2021/05/03 11:46:33;;;;;;;2.05;0.85;;;34.10;41.70;;;;;;5093623;28;20575;-73
2021/05/03 11:49:14;;;;;;;0.63;0.63;;;34.50;41.50;;;;;;5094737;28;20296;-74
2021/05/03 11:51:43;;;;;;;4.50;0.77;;;34.80;40.30;;;;;;5096417;28;20200;-76
2021/05/03 11:54:26;;;;;;;1.00;0.75;;;35.20;40.00;;;;;;5080065;28;20177;-76
2021/05/03 11:57:00;;;;;;;0.65;0.60;;;35.70;39.00;;;;;;5094129;28;20197;-74
2021/05/03 11:59:26;;;;;;;0.80;0.80;;;35.90;38.40;;;;;;5091336;28;20189;-77
2021/05/03 12:02:24;;;;;;;1.05;0.70;;;35.70;38.20;;;;;;5090201;28;20185;-77
2021/05/03 12:04:49;;;;;;;0.75;0.75;;;35.20;37.50;;;;;;5091958;28;20216;-74
2021/05/03 12:07:30;;;;;;;3.97;0.60;;;34.90;39.60;;;;;;5092065;28;20178;-75
2021/05/03 12:10:12;;;;;;;2.28;0.50;;;35.00;38.50;;;;;;5090087;28;20213;-75
2021/05/03 12:12:42;;;;;;;2.40;0.65;;;35.40;39.00;;;;;;5094553;28;20193;-75
2021/05/03 12:15:15;;;;;;;2.85;0.75;;;35.90;39.10;;;;;;5094251;28;20687;-76
2021/05/03 12:17:41;;;;;;;0.98;0.60;;;36.40;39.20;;;;;;5090059;28;20656;-76
2021/05/03 12:20:08;;;;;;;1.52;0.70;;;36.70;39.30;;;;;;5089624;28;20273;-74
2021/05/03 12:22:35;;;;;;;0.73;0.73;;;36.90;38.80;;;;;;5093077;28;20177;-75
2021/05/03 12:25:09;;;;;;;0.90;0.80;;;37.00;38.30;;;;;;5092124;28;20188;-76
2021/05/03 12:27:36;;;;;;;1.00;1.00;;;37.00;38.50;;;;;;5092600;28;20740;-75
2021/05/03 12:30:05;;;;;;;1.25;0.70;;;37.30;38.70;;;;;;5093055;28;20216;-74
2021/05/03 12:32:36;;;;;;;0.80;0.80;;;37.30;39.70;;;;;;5100988;28;20272;-74
2021/05/03 12:35:10;;;;;;;0.75;0.75;;;37.20;38.80;;;;;;5093493;28;20185;-74
2021/05/03 12:37:37;;;;;;;0.85;0.70;;;37.00;39.40;;;;;;5101785;28;20181;-74
2021/05/03 12:40:12;;;;;;;0.60;0.60;;;36.70;38.60;;;;;;5097637;28;20181;-74
2021/05/03 12:42:42;;;;;;;1.85;0.77;;;36.30;37.70;;;;;;5099176;28;20196;-74
2021/05/03 12:56:36;;;;;;;0.60;0.60;;;33.50;39.80;;;;;;5035829;28;20714;-74
2021/05/03 12:59:22;;;;;;;1.05;0.73;;;33.50;40.60;;;;;;5037055;28;20206;-74
2021/05/03 13:04:50;;;;;;;0.95;0.40;;;34.10;39.30;;;;;;5038729;28;20194;-73
2021/05/03 13:07:44;;;;;;;1.70;0.40;;;34.20;37.50;;;;;;5033066;28;20195;-75
2021/05/03 13:30:15;;;;;;;0.47;0.47;;;34.60;37.00;;;;;;5094121;28;20220;-73
2021/05/03 13:32:41;;;;;;;0.93;0.35;;;34.80;36.80;;;;;;5091448;28;20193;-72
2021/05/03 13:35:07;;;;;;;0.50;0.50;;;34.80;36.70;;;;;;5096009;28;21171;-73
2021/05/03 13:37:33;;;;;;;5.00;0.73;;;34.40;36.70;;;;;;5093280;28;20634;-73
2021/05/03 13:39:58;;;;;;;1.27;0.95;;;34.20;37.90;;;;;;5095551;28;20189;-72
2021/05/03 13:42:24;;;;;;;1.02;0.63;;;33.90;38.30;;;;;;5096794;27;20596;-73
2021/05/03 13:44:50;;;;;;;0.70;0.70;;;34.00;37.90;;;;;;5096203;28;20173;-72
2021/05/03 13:47:15;;;;;;;1.40;0.43;;;34.00;37.90;;;;;;5097087;28;20181;-73
2021/05/03 13:49:41;;;;;;;0.60;0.60;;;34.00;37.90;;;;;;5078410;28;20213;-73
2021/05/03 13:52:08;;;;;;;1.02;0.30;;;33.80;37.10;;;;;;5097432;28;20184;-73
2021/05/03 13:54:35;;;;;;;1.08;0.30;;;33.70;37.30;;;;;;5094565;28;20190;-73
2021/05/03 13:57:06;;;;;;;0.30;0.30;;;33.60;37.50;;;;;;5097942;28;20612;-73
2021/05/03 13:59:33;;;;;;;0.45;0.45;;;33.50;37.90;;;;;;5097709;28;20264;-72
2021/05/03 14:01:59;;;;;;;3.90;0.32;;;33.60;38.20;;;;;;5097594;28;20184;-73
2021/05/03 14:04:26;;;;;;;0.85;0.40;;;33.60;37.20;;;;;;5098838;28;20177;-72